Terminal Aerodrome Forecast
Issued by NWS

Home | Current Version | Previous Version | Text Only | Print | Product List | Glossary On
Versions: 1 2 3 4 5 6 7 8 9 10 11 12 13 14 15 16 17 18 19 20 21 22 23 24 25 26 27 28 29 30 31 32 33 34 35 36 37
000
FTUS43 KLOT 010100 AAA
TAFORD
TAF AMD
KORD 010152Z 0102/0206 35015G26KT P6SM -SHSN SCT025 OVC040
      TEMPO 0103/0107 3SM -SHSN SCT012 BKN025
     FM010700 35012G20KT 5SM -SHSN OVC020
     FM011400 01012G18KT P6SM BKN025
     FM011700 02011KT P6SM BKN025
     FM020000 VRB03KT P6SM FEW025=

USA.gov is the U.S. government's official web portal to all federal, state and local government web resources and services.